createdAt,value
2023-02-22T00:00:43.903Z,7.62
2023-02-22T00:03:15.300Z,7.57
2023-02-22T00:05:45.214Z,7.53
2023-02-22T00:08:12.955Z,7.48
2023-02-22T00:10:40.760Z,7.46
2023-02-22T00:13:13.265Z,7.45
2023-02-22T00:15:42.523Z,7.43
2023-02-22T00:18:11.497Z,7.41
2023-02-22T00:20:39.954Z,7.38
2023-02-22T00:23:09.282Z,7.37
2023-02-22T00:25:37.865Z,7.33
2023-02-22T00:28:06.131Z,7.27
2023-02-22T00:30:34.794Z,7.23
2023-02-22T00:33:04.050Z,7.19
2023-02-22T00:35:32.267Z,7.17
2023-02-22T00:38:01.648Z,7.14
2023-02-22T00:40:31.355Z,7.08
2023-02-22T00:42:59.983Z,7.09
2023-02-22T00:45:30.019Z,7.09
2023-02-22T00:47:58.098Z,7.10
2023-02-22T00:50:28.981Z,7.13
2023-02-22T00:52:57.643Z,7.10
2023-02-22T00:55:27.470Z,7.12
2023-02-22T00:57:55.619Z,7.12
2023-02-22T01:00:25.737Z,7.12
2023-02-22T01:02:53.481Z,7.12
2023-02-22T01:05:23.189Z,7.06
2023-02-22T01:07:52.673Z,7.03
2023-02-22T01:10:22.409Z,6.99
2023-02-22T01:12:51.055Z,6.99
2023-02-22T01:15:21.819Z,6.95
2023-02-22T01:17:50.948Z,6.91
2023-02-22T01:20:19.799Z,6.90
2023-02-22T01:22:49.733Z,6.89
2023-02-22T01:25:20.549Z,6.89
2023-02-22T01:27:50.235Z,6.88
2023-02-22T01:30:22.785Z,6.88
2023-02-22T01:32:51.405Z,6.87
2023-02-22T01:35:21.653Z,6.87
2023-02-22T01:37:49.663Z,6.85
2023-02-22T01:40:21.761Z,6.88
2023-02-22T01:42:52.871Z,6.85
2023-02-22T01:45:47.156Z,6.82
2023-02-22T01:48:20.186Z,6.81
2023-02-22T01:50:52.758Z,6.80
2023-02-22T01:53:23.115Z,6.79
2023-02-22T01:55:52.582Z,6.76
2023-02-22T01:58:20.912Z,6.80
2023-02-22T02:00:48.704Z,6.81
2023-02-22T02:03:21.705Z,6.80
2023-02-22T02:05:50.099Z,6.78
2023-02-22T02:08:30.451Z,6.78
2023-02-22T02:11:00.973Z,6.76
2023-02-22T02:13:29.878Z,6.75
2023-02-22T02:15:58.051Z,6.73
2023-02-22T02:18:27.936Z,6.62
2023-02-22T02:21:19.993Z,6.71
2023-02-22T02:24:06.110Z,6.68
2023-02-22T02:27:01.263Z,6.68
2023-02-22T02:30:03.774Z,6.68
2023-02-22T02:32:40.532Z,6.64
2023-02-22T02:35:12.729Z,6.63
2023-02-22T02:37:48.552Z,6.59
2023-02-22T02:40:22.051Z,6.58
2023-02-22T02:42:55.910Z,6.56
2023-02-22T02:45:27.789Z,6.56
2023-02-22T02:47:58.882Z,6.55
2023-02-22T02:50:29.245Z,6.53
2023-02-22T02:52:59.592Z,6.53
2023-02-22T02:55:28.521Z,6.53
2023-02-22T02:57:56.872Z,6.52
2023-02-22T03:00:28.441Z,6.44
2023-02-22T03:03:09.004Z,6.52
2023-02-22T03:05:59.983Z,6.50
2023-02-22T03:08:33.665Z,6.47
2023-02-22T03:11:15.132Z,6.39
2023-02-22T03:13:52.906Z,6.38
2023-02-22T03:16:24.671Z,6.35
2023-02-22T03:18:58.360Z,6.31
2023-02-22T03:21:31.123Z,6.27
2023-02-22T03:24:04.337Z,6.27
2023-02-22T03:26:36.713Z,6.25
2023-02-22T03:29:06.735Z,6.20
2023-02-22T03:31:38.067Z,6.19
2023-02-22T03:34:10.723Z,6.16
2023-02-22T03:36:41.903Z,6.16
2023-02-22T03:39:16.088Z,6.14
2023-02-22T03:41:51.548Z,6.10
2023-02-22T03:44:22.889Z,6.07
2023-02-22T03:46:51.838Z,5.86
2023-02-22T03:49:25.212Z,6.03
2023-02-22T03:51:53.395Z,6.03
2023-02-22T03:54:21.149Z,6.02
2023-02-22T03:56:51.449Z,6.01
2023-02-22T03:59:19.363Z,5.98
2023-02-22T04:01:47.052Z,5.97
2023-02-22T04:04:15.015Z,5.92
2023-02-22T04:06:44.128Z,5.97
2023-02-22T04:09:11.899Z,5.95
2023-02-22T04:11:39.571Z,5.88
2023-02-22T04:14:07.302Z,5.85
2023-02-22T04:16:35.005Z,5.83
2023-02-22T04:19:02.857Z,5.79
2023-02-22T04:21:30.599Z,5.75
2023-02-22T04:24:00.964Z,5.75
2023-02-22T04:26:28.758Z,5.73
2023-02-22T04:28:56.556Z,5.72
2023-02-22T04:31:24.319Z,5.72
2023-02-22T04:33:52.111Z,5.72
2023-02-22T04:36:21.663Z,5.72
2023-02-22T04:38:49.471Z,5.68
2023-02-22T04:41:19.717Z,5.56
2023-02-22T04:43:47.739Z,5.66
2023-02-22T04:46:15.656Z,5.63
2023-02-22T04:48:43.412Z,5.64
2023-02-22T04:51:11.208Z,5.67
2023-02-22T04:53:38.927Z,5.65
2023-02-22T04:56:07.293Z,5.61
2023-02-22T04:58:36.577Z,5.61
2023-02-22T05:01:04.656Z,5.63
2023-02-22T05:03:32.388Z,5.61
2023-02-22T05:06:00.203Z,5.59
2023-02-22T05:08:27.892Z,5.60
2023-02-22T05:10:55.600Z,5.58
2023-02-22T05:13:23.372Z,5.57
2023-02-22T05:15:52.520Z,5.53
2023-02-22T05:18:20.343Z,5.51
2023-02-22T05:20:48.218Z,5.48
2023-02-22T05:23:15.981Z,5.47
2023-02-22T05:25:43.694Z,5.46
2023-02-22T05:28:14.224Z,5.46
2023-02-22T05:30:42.294Z,5.45
2023-02-22T05:33:11.810Z,5.46
2023-02-22T05:35:39.774Z,5.48
2023-02-22T05:38:07.967Z,5.46
2023-02-22T05:40:35.799Z,5.49
2023-02-22T05:43:03.815Z,5.49
2023-02-22T05:45:31.595Z,5.49
2023-02-22T05:47:59.996Z,5.51
2023-02-22T05:50:29.241Z,5.55
2023-02-22T05:52:56.943Z,5.58
2023-02-22T05:55:25.238Z,5.60
2023-02-22T05:57:53.437Z,5.58
2023-02-22T06:00:23.530Z,5.57
2023-02-22T06:02:55.657Z,5.59
2023-02-22T06:05:23.509Z,5.60
2023-02-22T06:07:52.644Z,5.61
2023-02-22T06:10:21.181Z,5.61
2023-02-22T06:12:49.019Z,5.59
2023-02-22T06:15:17.512Z,5.57
2023-02-22T06:17:45.857Z,5.55
2023-02-22T06:20:15.971Z,5.54
2023-02-22T06:22:44.766Z,5.53
2023-02-22T06:25:17.162Z,5.51
2023-02-22T06:27:44.863Z,5.49
2023-02-22T06:30:13.756Z,5.49
2023-02-22T06:32:41.522Z,5.48
2023-02-22T06:35:09.637Z,5.47
2023-02-22T06:37:38.632Z,5.48
2023-02-22T06:40:06.888Z,5.48
2023-02-22T06:42:36.022Z,5.47
2023-02-22T06:45:03.834Z,5.47
2023-02-22T06:47:31.565Z,5.46
2023-02-22T06:50:00.847Z,5.49
2023-02-22T06:52:28.620Z,5.51
2023-02-22T06:54:56.343Z,5.52
2023-02-22T06:57:24.100Z,5.54
2023-02-22T06:59:53.145Z,5.61
2023-02-22T07:02:20.860Z,5.72
2023-02-22T07:04:48.558Z,5.78
2023-02-22T07:07:16.296Z,5.81
2023-02-22T07:09:47.311Z,5.85
2023-02-22T07:12:15.105Z,5.89
2023-02-22T07:14:42.828Z,5.91
2023-02-22T07:17:11.947Z,5.95
2023-02-22T07:19:39.660Z,5.97
2023-02-22T07:22:07.399Z,6.01
2023-02-22T07:24:36.057Z,6.03
2023-02-22T07:27:03.802Z,6.07
2023-02-22T07:29:31.873Z,6.06
2023-02-22T07:31:59.653Z,6.11
2023-02-22T07:34:28.840Z,6.14
2023-02-22T07:36:56.562Z,6.17
2023-02-22T07:39:24.261Z,6.22
2023-02-22T07:41:51.994Z,6.28
2023-02-22T07:44:19.713Z,6.35
2023-02-22T07:46:49.199Z,6.41
2023-02-22T07:49:17.580Z,6.49
2023-02-22T07:51:46.706Z,6.60
2023-02-22T07:54:14.430Z,6.69
2023-02-22T07:56:46.394Z,6.81
2023-02-22T07:59:14.100Z,6.94
2023-02-22T08:01:42.122Z,6.96
2023-02-22T08:04:09.901Z,7.05
2023-02-22T08:06:37.618Z,7.13
2023-02-22T08:09:06.789Z,7.18
2023-02-22T08:11:34.526Z,7.20
2023-02-22T08:14:02.203Z,7.27
2023-02-22T08:16:29.916Z,7.31
2023-02-22T08:18:57.646Z,7.41
2023-02-22T08:21:25.362Z,7.43
2023-02-22T08:23:54.256Z,7.54
2023-02-22T08:26:25.417Z,7.74
2023-02-22T08:28:53.173Z,7.92
2023-02-22T08:31:21.117Z,8.07
2023-02-22T08:33:50.119Z,8.37
2023-02-22T08:36:18.650Z,8.66
2023-02-22T08:38:46.578Z,8.67
2023-02-22T08:41:14.297Z,8.74
2023-02-22T08:43:43.421Z,8.69
2023-02-22T08:46:11.195Z,8.76
2023-02-22T08:48:39.003Z,8.76
2023-02-22T08:51:07.001Z,8.65
2023-02-22T08:53:34.866Z,8.54
2023-02-22T08:56:02.603Z,8.71
2023-02-22T08:58:30.317Z,8.69
2023-02-22T09:00:59.397Z,8.51
2023-02-22T09:03:27.211Z,8.41
2023-02-22T09:05:55.004Z,8.36
2023-02-22T09:08:22.984Z,8.63
2023-02-22T09:10:51.253Z,8.51
2023-02-22T09:13:19.073Z,8.71
2023-02-22T09:15:46.802Z,8.66
2023-02-22T09:18:18.111Z,8.69
2023-02-22T09:20:45.922Z,8.73
2023-02-22T09:23:14.545Z,8.89
2023-02-22T09:25:42.393Z,8.94
2023-02-22T09:28:10.338Z,8.99
2023-02-22T09:30:38.577Z,9.18
2023-02-22T09:33:10.092Z,9.54
2023-02-22T09:35:42.495Z,9.67
2023-02-22T09:38:11.490Z,9.75
2023-02-22T09:40:45.076Z,9.92
2023-02-22T09:43:22.760Z,9.88
2023-02-22T09:45:59.461Z,9.94
2023-02-22T09:48:27.521Z,10.18
2023-02-22T09:50:59.469Z,10.27
2023-02-22T09:53:30.444Z,10.52
2023-02-22T09:56:00.798Z,10.59
2023-02-22T09:58:33.796Z,10.49
2023-02-22T10:01:14.425Z,10.37
2023-02-22T10:03:50.671Z,10.20
2023-02-22T10:06:22.535Z,9.96
2023-02-22T10:08:51.288Z,9.77
2023-02-22T10:11:29.439Z,9.76
2023-02-22T10:14:03.530Z,9.75
2023-02-22T10:16:34.498Z,9.77
2023-02-22T10:19:10.786Z,9.49
2023-02-22T10:21:50.575Z,9.45
2023-02-22T10:24:30.808Z,9.75
2023-02-22T10:26:59.889Z,10.14
2023-02-22T10:29:32.685Z,10.42
2023-02-22T10:32:03.504Z,10.55
2023-02-22T10:34:36.327Z,10.46
2023-02-22T10:37:20.514Z,10.39
2023-02-22T10:39:49.759Z,10.75
2023-02-22T10:42:22.133Z,10.86
2023-02-22T10:44:49.943Z,10.65
2023-02-22T10:47:21.068Z,10.49
2023-02-22T10:49:52.332Z,10.76
2023-02-22T10:52:27.039Z,10.65
2023-02-22T10:55:03.520Z,10.84
2023-02-22T10:57:42.408Z,11.10
2023-02-22T11:00:20.436Z,11.16
2023-02-22T11:02:54.582Z,10.82
2023-02-22T11:05:36.828Z,11.02
2023-02-22T11:08:25.906Z,11.02
2023-02-22T11:10:55.739Z,11.29
2023-02-22T11:13:29.478Z,11.53
2023-02-22T11:16:00.182Z,11.56
2023-02-22T11:18:31.336Z,11.44
2023-02-22T11:21:04.792Z,11.24
2023-02-22T11:23:34.878Z,11.22
2023-02-22T11:26:07.370Z,11.40
2023-02-22T11:28:35.553Z,11.59
2023-02-22T11:31:15.698Z,11.86
2023-02-22T11:33:52.549Z,12.40
2023-02-22T11:36:37.510Z,12.74
2023-02-22T11:39:11.551Z,12.60
2023-02-22T11:41:39.441Z,12.61
2023-02-22T11:44:16.004Z,13.24
2023-02-22T11:46:44.744Z,13.49
2023-02-22T11:49:14.316Z,13.84
2023-02-22T11:51:52.435Z,13.44
2023-02-22T11:54:40.064Z,13.01
2023-02-22T11:57:17.196Z,12.68
2023-02-22T11:59:56.733Z,13.28
2023-02-22T12:02:33.913Z,13.16
2023-02-22T12:05:13.592Z,13.18
2023-02-22T12:07:50.572Z,13.38
2023-02-22T12:10:28.315Z,13.73
2023-02-22T12:13:06.308Z,14.04
2023-02-22T12:15:40.151Z,14.09
2023-02-22T12:18:15.629Z,14.52
2023-02-22T12:20:47.706Z,14.89
2023-02-22T12:23:20.157Z,15.05
2023-02-22T12:25:58.660Z,14.86
2023-02-22T12:28:32.136Z,15.21
2023-02-22T12:31:08.659Z,15.31
2023-02-22T12:33:44.255Z,15.27
2023-02-22T12:36:15.480Z,15.03
2023-02-22T12:38:45.079Z,15.13
2023-02-22T12:41:20.128Z,15.15
2023-02-22T12:43:51.995Z,14.90
2023-02-22T12:46:22.988Z,14.84
2023-02-22T12:48:54.929Z,14.35
2023-02-22T12:51:28.309Z,14.17
2023-02-22T12:54:04.835Z,14.30
2023-02-22T12:56:36.216Z,13.91
2023-02-22T12:59:09.195Z,13.90
2023-02-22T13:01:40.409Z,13.36
2023-02-22T13:04:20.227Z,13.39
2023-02-22T13:06:59.390Z,12.98
2023-02-22T13:09:43.536Z,12.73
2023-02-22T13:12:18.289Z,12.40
2023-02-22T13:14:55.658Z,12.27
2023-02-22T13:17:33.004Z,11.80
2023-02-22T13:20:02.616Z,11.54
2023-02-22T13:22:36.317Z,11.59
2023-02-22T13:25:09.478Z,11.87
2023-02-22T13:27:42.793Z,12.26
2023-02-22T13:30:19.748Z,12.64
2023-02-22T13:33:02.382Z,12.80
2023-02-22T13:35:38.730Z,12.83
2023-02-22T13:38:30.899Z,12.48
2023-02-22T13:41:19.273Z,12.35
2023-02-22T13:44:04.407Z,12.57
2023-02-22T13:46:44.624Z,12.98
2023-02-22T13:49:39.679Z,13.38
2023-02-22T13:52:09.796Z,13.49
2023-02-22T13:54:42.235Z,13.24
2023-02-22T13:57:20.346Z,12.90
2023-02-22T13:59:49.644Z,12.97
2023-02-22T14:02:36.771Z,12.88
2023-02-22T14:05:38.927Z,13.23
2023-02-22T14:08:07.240Z,12.73
2023-02-22T14:10:57.015Z,12.45
2023-02-22T14:13:26.668Z,12.24
2023-02-22T14:16:28.978Z,12.44
2023-02-22T14:19:06.561Z,12.16
2023-02-22T14:21:35.709Z,12.12
2023-02-22T14:24:18.905Z,11.95
2023-02-22T14:26:56.546Z,11.84
2023-02-22T14:29:25.593Z,11.71
2023-02-22T14:32:04.607Z,11.75
2023-02-22T14:34:43.421Z,11.89
2023-02-22T14:37:15.270Z,11.91
2023-02-22T14:39:45.999Z,12.27
2023-02-22T14:42:15.772Z,12.39
2023-02-22T14:44:50.083Z,12.58
2023-02-22T14:47:23.096Z,12.65
2023-02-22T14:49:52.445Z,12.56
2023-02-22T14:52:26.150Z,12.84
2023-02-22T14:55:04.429Z,13.01
2023-02-22T14:57:39.056Z,13.27
2023-02-22T15:00:30.959Z,13.33
2023-02-22T15:03:01.274Z,12.92
2023-02-22T15:05:38.265Z,12.67
2023-02-22T15:08:08.379Z,12.34
2023-02-22T15:10:42.995Z,12.15
2023-02-22T15:13:18.721Z,11.93
2023-02-22T15:15:49.521Z,11.69
2023-02-22T15:18:25.292Z,11.40
2023-02-22T15:20:57.717Z,11.38
2023-02-22T15:23:27.805Z,11.20
2023-02-22T15:25:55.678Z,11.09
2023-02-22T15:28:24.686Z,10.95
2023-02-22T15:30:52.487Z,11.02
2023-02-22T15:33:24.687Z,10.96
2023-02-22T15:35:56.473Z,10.85
2023-02-22T15:38:29.656Z,10.76
2023-02-22T15:41:02.617Z,10.76
2023-02-22T15:43:32.269Z,10.81
2023-02-22T15:46:00.906Z,10.85
2023-02-22T15:48:31.728Z,10.73
2023-02-22T15:51:07.680Z,10.79
2023-02-22T15:53:41.776Z,10.87
2023-02-22T15:56:13.758Z,10.96
2023-02-22T15:58:41.762Z,10.90
2023-02-22T16:01:12.424Z,11.04
2023-02-22T16:03:47.147Z,11.04
2023-02-22T16:06:17.337Z,11.06
2023-02-22T16:08:55.148Z,11.09
2023-02-22T16:11:30.017Z,11.07
2023-02-22T16:14:00.656Z,11.04
2023-02-22T16:16:31.533Z,10.93
2023-02-22T16:19:28.870Z,10.84
2023-02-22T16:22:02.796Z,10.81
2023-02-22T16:24:33.450Z,10.79
2023-02-22T16:27:07.941Z,10.79
2023-02-22T16:29:35.768Z,10.75
2023-02-22T16:32:03.955Z,10.74
2023-02-22T16:34:33.178Z,10.71
2023-02-22T16:37:01.373Z,10.64
2023-02-22T16:39:30.827Z,10.61
2023-02-22T16:42:00.331Z,10.56
2023-02-22T16:44:28.765Z,10.51
2023-02-22T16:46:57.713Z,10.48
2023-02-22T16:49:25.743Z,10.44
2023-02-22T16:51:56.497Z,10.41
2023-02-22T16:54:26.774Z,10.36
2023-02-22T16:56:56.078Z,10.32
2023-02-22T16:59:24.103Z,10.25
2023-02-22T17:01:51.845Z,10.15
2023-02-22T17:04:21.179Z,10.10
2023-02-22T17:06:49.871Z,10.08
2023-02-22T17:09:20.168Z,10.03
2023-02-22T17:11:50.110Z,10.01
2023-02-22T17:14:20.422Z,9.95
2023-02-22T17:16:48.158Z,9.91
2023-02-22T17:19:17.284Z,9.84
2023-02-22T17:21:45.005Z,9.79
2023-02-22T17:24:13.807Z,9.74
2023-02-22T17:26:43.160Z,9.76
2023-02-22T17:29:10.978Z,9.77
2023-02-22T17:31:38.770Z,9.74
2023-02-22T17:34:07.243Z,9.69
2023-02-22T17:36:37.071Z,9.69
2023-02-22T17:39:05.672Z,9.67
2023-02-22T17:41:33.851Z,9.65
2023-02-22T17:44:03.039Z,9.64
2023-02-22T17:46:31.035Z,9.61
2023-02-22T17:48:58.787Z,9.58
2023-02-22T17:51:26.845Z,9.59
2023-02-22T17:53:54.617Z,9.58
2023-02-22T17:56:22.741Z,9.50
2023-02-22T17:58:54.218Z,9.54
2023-02-22T18:01:27.144Z,9.51
2023-02-22T18:03:55.734Z,9.48
2023-02-22T18:06:28.336Z,9.45
2023-02-22T18:08:56.969Z,9.44
2023-02-22T18:11:26.785Z,9.42
2023-02-22T18:13:55.172Z,9.38
2023-02-22T18:16:25.570Z,9.36
2023-02-22T18:18:53.792Z,9.34
2023-02-22T18:21:21.703Z,9.20
2023-02-22T18:23:49.462Z,9.25
2023-02-22T18:26:18.472Z,9.22
2023-02-22T18:28:48.656Z,9.22
2023-02-22T18:31:18.601Z,9.19
2023-02-22T18:33:50.245Z,9.18
2023-02-22T18:36:22.640Z,9.15
2023-02-22T18:38:51.809Z,9.12
2023-02-22T18:41:20.891Z,9.13
2023-02-22T18:43:50.843Z,9.13
2023-02-22T18:46:20.573Z,9.11
2023-02-22T18:48:53.211Z,9.09
2023-02-22T18:51:20.953Z,9.10
2023-02-22T18:53:50.076Z,9.08
2023-02-22T18:56:21.859Z,9.09
2023-02-22T18:58:53.834Z,9.05
2023-02-22T19:01:22.102Z,9.05
2023-02-22T19:03:51.934Z,9.04
2023-02-22T19:06:21.950Z,9.06
2023-02-22T19:08:50.678Z,9.03
2023-02-22T19:11:20.061Z,9.05
2023-02-22T19:13:48.996Z,9.04
2023-02-22T19:16:20.684Z,9.03
2023-02-22T19:18:49.815Z,9.03
2023-02-22T19:21:19.976Z,9.00
2023-02-22T19:23:48.532Z,8.99
2023-02-22T19:26:19.530Z,8.95
2023-02-22T19:28:47.685Z,8.95
2023-02-22T19:31:17.761Z,8.94
2023-02-22T19:33:47.960Z,8.93
2023-02-22T19:36:16.683Z,8.94
2023-02-22T19:38:46.285Z,8.92
2023-02-22T19:41:18.156Z,8.86
2023-02-22T19:43:46.220Z,8.80
2023-02-22T19:46:14.557Z,8.78
2023-02-22T19:48:42.300Z,8.76
2023-02-22T19:51:11.320Z,8.77
2023-02-22T19:53:40.108Z,8.81
2023-02-22T19:56:10.807Z,8.79
2023-02-22T19:58:39.220Z,8.80
2023-02-22T20:01:13.784Z,8.74
2023-02-22T20:03:42.121Z,8.71
2023-02-22T20:06:10.425Z,8.66
2023-02-22T20:08:42.007Z,8.66
2023-02-22T20:11:12.021Z,8.65
2023-02-22T20:13:40.474Z,8.61
2023-02-22T20:16:09.962Z,8.62
2023-02-22T20:18:38.070Z,8.49
2023-02-22T20:21:09.570Z,8.61
2023-02-22T20:23:40.141Z,8.63
2023-02-22T20:26:17.281Z,8.68
2023-02-22T20:28:45.009Z,8.75
2023-02-22T20:31:14.458Z,8.79
2023-02-22T20:33:42.768Z,8.78
2023-02-22T20:36:11.354Z,8.77
2023-02-22T20:38:39.519Z,8.75
2023-02-22T20:41:08.092Z,8.72
2023-02-22T20:43:37.344Z,8.69
2023-02-22T20:46:06.311Z,8.72
2023-02-22T20:48:34.935Z,8.71
2023-02-22T20:51:06.541Z,8.79
2023-02-22T20:53:34.532Z,8.83
2023-02-22T20:56:02.769Z,8.88
2023-02-22T20:58:30.466Z,8.88
2023-02-22T21:01:04.851Z,8.90
2023-02-22T21:03:33.660Z,8.93
2023-02-22T21:06:01.472Z,8.93
2023-02-22T21:08:29.191Z,8.95
2023-02-22T21:10:56.916Z,8.94
2023-02-22T21:13:24.669Z,8.86
2023-02-22T21:15:52.711Z,8.83
2023-02-22T21:18:24.685Z,8.84
2023-02-22T21:20:53.797Z,8.79
2023-02-22T21:23:21.508Z,8.74
2023-02-22T21:25:52.427Z,8.69
2023-02-22T21:28:20.365Z,8.63
2023-02-22T21:30:48.710Z,8.60
2023-02-22T21:33:16.905Z,8.61
2023-02-22T21:35:47.253Z,8.61
2023-02-22T21:38:15.289Z,8.53
2023-02-22T21:40:44.551Z,8.58
2023-02-22T21:43:13.097Z,8.58
2023-02-22T21:45:41.080Z,8.58
2023-02-22T21:48:08.834Z,8.59
2023-02-22T21:50:37.804Z,8.60
2023-02-22T21:53:07.416Z,8.66
2023-02-22T21:55:35.939Z,8.61
2023-02-22T21:58:03.705Z,8.66
2023-02-22T22:00:38.027Z,8.70
2023-02-22T22:03:11.639Z,8.72
2023-02-22T22:05:40.332Z,8.75
2023-02-22T22:08:13.292Z,8.72
2023-02-22T22:10:41.024Z,8.70
2023-02-22T22:13:09.164Z,8.69
2023-02-22T22:15:37.486Z,8.71
2023-02-22T22:18:06.640Z,8.69
2023-02-22T22:20:37.679Z,8.63
2023-02-22T22:23:05.884Z,8.62
2023-02-22T22:25:38.105Z,8.59
2023-02-22T22:28:07.742Z,8.63
2023-02-22T22:30:37.057Z,8.44
2023-02-22T22:33:08.385Z,8.62
2023-02-22T22:35:36.124Z,8.63
2023-02-22T22:38:03.915Z,8.62
2023-02-22T22:40:34.329Z,8.59
2023-02-22T22:43:06.119Z,8.59
2023-02-22T22:45:33.893Z,8.62
2023-02-22T22:48:02.247Z,8.66
2023-02-22T22:50:30.124Z,8.72
2023-02-22T22:52:58.153Z,8.75
2023-02-22T22:55:25.866Z,8.81
2023-02-22T22:57:53.634Z,8.82
2023-02-22T23:00:30.080Z,8.86
2023-02-22T23:02:57.948Z,8.89
2023-02-22T23:05:27.930Z,8.85
2023-02-22T23:07:57.115Z,8.88
2023-02-22T23:10:28.130Z,8.82
2023-02-22T23:12:57.190Z,8.76
2023-02-22T23:15:26.864Z,8.72
2023-02-22T23:17:56.182Z,8.69
2023-02-22T23:20:26.316Z,8.68
2023-02-22T23:22:54.229Z,8.67
2023-02-22T23:25:22.272Z,8.66
2023-02-22T23:27:50.401Z,8.69
2023-02-22T23:30:18.995Z,8.59
2023-02-22T23:32:48.894Z,8.68
2023-02-22T23:35:18.958Z,8.67
2023-02-22T23:37:53.042Z,8.71
2023-02-22T23:40:20.949Z,8.71
2023-02-22T23:42:49.958Z,8.74
2023-02-22T23:45:23.506Z,8.76
2023-02-22T23:47:54.923Z,8.74
2023-02-22T23:50:24.144Z,8.73
2023-02-22T23:52:56.971Z,8.71
2023-02-22T23:55:25.533Z,8.69
2023-02-22T23:57:59.306Z,8.72
